Time;durP1;ratioP1;P1;durP2;ratioP2;P2;SDS_P1;SDS_P2;PMS_P1;PMS_P2;Temp;Humidity;BMP_temperature;BMP_pressure;BME280_temperature;BME280_humidity;BME280_pressure;Samples;Min_cycle;Max_cycle;Signal;HPM_P1;HPM_P2
2022/01/01 00:00:14;;;;;;;38.20;13.68;;;12.80;99.90;;;;;;4227606;28;20079;-72
2022/01/01 00:02:17;;;;;;;33.13;13.90;;;12.80;99.90;;;;;;4226319;28;20072;-72
2022/01/01 00:04:37;;;;;;;32.00;13.63;;;12.80;99.90;;;;;;4202204;22;20047;-77
2022/01/01 00:06:39;;;;;;;31.77;13.07;;;12.70;99.90;;;;;;4172261;28;20477;-78
2022/01/01 00:08:41;;;;;;;44.58;13.82;;;12.70;99.90;;;;;;4176794;28;20076;-78
2022/01/01 00:10:43;;;;;;;36.90;14.77;;;12.70;99.90;;;;;;4175451;28;20077;-78
2022/01/01 00:12:49;;;;;;;38.75;14.18;;;12.60;99.90;;;;;;4169244;28;20060;-78
2022/01/01 00:14:51;;;;;;;45.97;14.15;;;12.60;99.90;;;;;;4174883;28;20061;-77
2022/01/01 00:16:53;;;;;;;34.92;13.45;;;12.60;99.90;;;;;;4171474;28;20045;-78
2022/01/01 00:18:55;;;;;;;33.92;13.63;;;12.60;99.90;;;;;;4148711;28;20053;-78
2022/01/01 00:20:57;;;;;;;40.00;15.18;;;12.50;99.90;;;;;;4164977;28;20049;-77
2022/01/01 00:22:59;;;;;;;40.58;14.25;;;12.60;99.90;;;;;;4148932;28;20046;-77
2022/01/01 00:25:01;;;;;;;30.67;14.23;;;12.60;99.90;;;;;;4148865;28;20727;-78
2022/01/01 00:27:03;;;;;;;30.55;14.15;;;12.60;99.90;;;;;;4151106;28;20049;-78
2022/01/01 00:29:06;;;;;;;40.70;14.52;;;12.60;99.90;;;;;;4165274;28;20107;-78
2022/01/01 00:31:08;;;;;;;34.60;13.45;;;12.60;99.90;;;;;;4148779;28;20072;-77
2022/01/01 00:33:10;;;;;;;37.75;14.30;;;12.50;99.90;;;;;;4152547;28;20072;-77
2022/01/01 00:35:12;;;;;;;36.67;14.60;;;12.50;99.90;;;;;;4148479;28;20081;-77
2022/01/01 00:37:14;;;;;;;41.97;13.52;;;12.50;99.90;;;;;;4153814;28;20481;-78
2022/01/01 00:39:16;;;;;;;36.38;14.20;;;12.50;99.90;;;;;;4148559;28;20049;-78
2022/01/01 00:41:18;;;;;;;33.58;12.65;;;12.50;99.90;;;;;;4148586;28;20084;-78
2022/01/01 00:43:19;;;;;;;26.58;12.77;;;12.40;99.90;;;;;;4163688;28;20046;-78
2022/01/01 00:45:23;;;;;;;41.42;15.40;;;12.50;99.90;;;;;;4164768;28;20061;-78
2022/01/01 00:47:25;;;;;;;45.78;16.08;;;12.40;99.90;;;;;;4163036;28;20076;-78
2022/01/01 00:49:28;;;;;;;33.03;12.82;;;12.40;99.90;;;;;;4153048;28;20049;-77
2022/01/01 00:51:30;;;;;;;34.28;13.32;;;12.40;99.90;;;;;;4175033;28;20041;-78
2022/01/01 00:53:32;;;;;;;33.72;11.50;;;12.50;99.90;;;;;;4162170;28;20049;-77
2022/01/01 00:55:34;;;;;;;36.08;13.40;;;12.40;99.90;;;;;;4148998;28;20085;-78
2022/01/01 00:57:36;;;;;;;35.58;12.07;;;12.40;99.90;;;;;;4164597;28;20426;-78
2022/01/01 00:59:38;;;;;;;37.33;13.13;;;12.40;99.90;;;;;;4164549;28;20087;-77
2022/01/01 01:01:40;;;;;;;31.17;12.52;;;12.30;99.90;;;;;;4163169;28;20081;-77
2022/01/01 01:03:42;;;;;;;27.63;12.35;;;12.30;99.90;;;;;;4163812;28;20049;-78
2022/01/01 01:05:46;;;;;;;31.55;13.20;;;12.30;99.90;;;;;;4164770;28;20077;-77
2022/01/01 01:07:48;;;;;;;36.17;12.40;;;12.30;99.90;;;;;;4164232;28;20136;-77
2022/01/01 01:09:50;;;;;;;30.92;11.80;;;12.30;99.90;;;;;;4155777;28;20485;-77
2022/01/01 01:11:52;;;;;;;32.28;12.73;;;12.20;99.90;;;;;;4156790;28;20124;-78
2022/01/01 01:13:58;;;;;;;29.17;11.80;;;12.20;99.90;;;;;;4148208;28;20050;-78
2022/01/01 01:16:00;;;;;;;32.60;12.35;;;12.20;99.90;;;;;;4149524;28;20080;-78
2022/01/01 01:18:07;;;;;;;28.42;12.02;;;12.10;99.90;;;;;;4164131;28;20095;-77
2022/01/01 01:20:09;;;;;;;35.92;12.02;;;12.10;99.90;;;;;;4164497;28;20077;-77
2022/01/01 01:22:11;;;;;;;23.40;11.27;;;12.10;99.90;;;;;;4164491;28;20052;-77
2022/01/01 01:24:15;;;;;;;31.67;12.40;;;12.10;99.90;;;;;;4162776;28;20081;-78
2022/01/01 01:26:17;;;;;;;27.35;11.65;;;12.10;99.90;;;;;;4162693;28;20671;-77
2022/01/01 01:28:19;;;;;;;30.10;11.70;;;12.00;99.90;;;;;;4163872;28;20520;-77
2022/01/01 01:30:22;;;;;;;32.92;12.25;;;12.00;99.90;;;;;;4158438;28;20137;-78
2022/01/01 01:32:24;;;;;;;30.60;11.65;;;12.00;99.90;;;;;;4164024;28;20053;-78
2022/01/01 01:34:27;;;;;;;28.73;11.60;;;11.90;99.90;;;;;;4163562;28;20049;-78
2022/01/01 01:36:29;;;;;;;30.45;11.02;;;12.00;99.90;;;;;;4163690;28;20128;-77
2022/01/01 01:38:36;;;;;;;25.40;11.00;;;11.90;99.90;;;;;;4149144;28;20534;-77
2022/01/01 01:40:38;;;;;;;26.83;10.55;;;11.90;99.90;;;;;;4154776;28;20077;-78
2022/01/01 01:42:42;;;;;;;22.30;10.50;;;11.90;99.90;;;;;;4164168;28;20516;-77
2022/01/01 01:44:47;;;;;;;26.02;10.35;;;11.90;99.90;;;;;;4161962;28;20076;-78
2022/01/01 01:46:49;;;;;;;22.90;10.63;;;11.90;99.90;;;;;;4163697;28;20132;-77
2022/01/01 01:48:51;;;;;;;27.50;10.52;;;11.80;99.90;;;;;;4147451;28;20437;-77
2022/01/01 01:50:56;;;;;;;24.63;10.02;;;11.80;99.90;;;;;;4172361;28;20069;-77
2022/01/01 01:52:59;;;;;;;23.20;9.70;;;11.80;99.90;;;;;;4172507;28;20056;-78
2022/01/01 01:55:04;;;;;;;28.88;9.88;;;11.80;99.90;;;;;;4163701;28;20041;-77
2022/01/01 01:57:06;;;;;;;;;;;11.80;99.90;;;;;;4148077;28;20081;-78
2022/01/01 01:59:08;;;;;;;18.42;10.13;;;11.80;99.90;;;;;;4148095;28;19956;-78
2022/01/01 02:01:20;;;;;;;27.42;9.70;;;11.80;99.90;;;;;;4161278;28;20108;-78
2022/01/01 02:03:23;;;;;;;31.73;10.73;;;11.80;99.90;;;;;;4147409;28;20073;-77
2022/01/01 02:05:25;;;;;;;27.45;11.05;;;11.80;99.90;;;;;;4167472;28;20058;-78
2022/01/01 02:07:27;;;;;;;25.88;10.20;;;11.80;99.90;;;;;;4161884;28;20076;-77
2022/01/01 02:09:29;;;;;;;24.23;9.32;;;11.80;99.90;;;;;;4162897;28;20077;-77
2022/01/01 02:11:32;;;;;;;25.95;9.13;;;11.80;99.90;;;;;;4145832;28;20048;-77
2022/01/01 02:17:58;;;;;;;23.98;9.48;;;11.80;99.90;;;;;;4148451;28;20475;-77
2022/01/01 02:20:11;;;;;;;20.65;9.30;;;11.80;99.90;;;;;;4161839;28;20161;-77
2022/01/01 02:22:14;;;;;;;19.80;9.20;;;11.80;99.90;;;;;;4157354;28;20132;-77
2022/01/01 02:24:16;;;;;;;16.30;8.40;;;11.70;99.90;;;;;;4164713;28;20136;-77
2022/01/01 02:26:18;;;;;;;24.10;9.07;;;11.70;99.90;;;;;;4161476;28;20588;-77
2022/01/01 02:28:20;;;;;;;19.52;8.90;;;11.70;99.90;;;;;;4146882;28;20048;-77
2022/01/01 02:30:23;;;;;;;18.60;8.23;;;11.80;99.90;;;;;;4151721;28;20056;-80
2022/01/01 02:32:25;;;;;;;22.05;9.07;;;11.80;99.90;;;;;;4160706;28;20046;-77
2022/01/01 02:34:27;;;;;;;19.60;8.77;;;11.80;99.90;;;;;;4163386;28;20073;-77
2022/01/01 02:36:31;;;;;;;17.90;7.72;;;11.80;99.90;;;;;;4161055;28;20525;-77
2022/01/01 02:38:35;;;;;;;18.67;8.35;;;11.80;99.90;;;;;;4163314;28;20073;-78
2022/01/01 02:40:38;;;;;;;19.05;7.88;;;11.80;99.90;;;;;;4161346;28;20598;-77
2022/01/01 02:42:42;;;;;;;20.80;7.80;;;11.80;99.90;;;;;;4155407;28;20053;-78
2022/01/01 02:44:44;;;;;;;19.85;7.47;;;11.70;99.90;;;;;;4147247;28;20116;-77
2022/01/01 02:46:46;;;;;;;24.75;8.07;;;11.70;99.90;;;;;;4146925;28;20152;-77
2022/01/01 02:48:48;;;;;;;13.75;7.57;;;11.70;99.90;;;;;;4147158;28;20465;-78
2022/01/01 02:50:53;;;;;;;18.17;7.90;;;11.80;99.90;;;;;;4161858;28;20046;-77
2022/01/01 02:52:55;;;;;;;14.02;7.55;;;11.80;99.90;;;;;;4167053;28;20072;-78
2022/01/01 02:54:56;;;;;;;17.50;8.00;;;11.80;99.90;;;;;;4170548;28;20053;-78
2022/01/01 02:56:58;;;;;;;20.58;7.65;;;11.80;99.90;;;;;;4162646;28;20091;-77
2022/01/01 02:59:00;;;;;;;21.35;7.95;;;11.80;99.90;;;;;;4146770;28;20085;-77
2022/01/01 03:01:02;;;;;;;18.75;8.07;;;11.80;99.90;;;;;;4146676;28;20088;-77
2022/01/01 03:03:04;;;;;;;20.35;7.57;;;11.80;99.90;;;;;;4162755;28;20132;-77
2022/01/01 03:05:07;;;;;;;16.15;6.95;;;11.80;99.90;;;;;;4161417;28;20053;-77
2022/01/01 03:07:09;;;;;;;18.70;7.57;;;11.80;99.90;;;;;;4162287;28;20045;-77
2022/01/01 03:09:11;;;;;;;14.98;6.28;;;11.80;99.90;;;;;;4163293;28;20073;-78
2022/01/01 03:11:13;;;;;;;12.68;6.45;;;11.80;99.90;;;;;;4161107;28;20045;-77
2022/01/01 03:13:16;;;;;;;15.73;7.10;;;11.80;99.90;;;;;;4147983;28;20648;-78
2022/01/01 03:15:18;;;;;;;13.15;6.10;;;11.80;99.90;;;;;;4148500;28;20053;-77
2022/01/01 03:17:19;;;;;;;11.82;6.28;;;11.80;99.90;;;;;;4162987;28;20457;-77
2022/01/01 03:19:22;;;;;;;16.08;6.85;;;11.80;99.90;;;;;;4150537;28;20045;-78
2022/01/01 03:21:23;;;;;;;16.70;6.57;;;11.80;99.90;;;;;;4162602;28;20077;-77
2022/01/01 03:23:25;;;;;;;14.75;6.13;;;11.70;99.90;;;;;;4162847;28;20048;-77
2022/01/01 03:25:27;;;;;;;18.83;6.95;;;11.70;99.90;;;;;;4163579;28;20080;-78
2022/01/01 03:27:29;;;;;;;10.38;6.05;;;11.70;99.90;;;;;;4161012;28;20410;-78
2022/01/01 03:29:32;;;;;;;17.25;6.22;;;11.70;99.90;;;;;;4162589;28;20077;-77
2022/01/01 03:31:34;;;;;;;15.30;5.97;;;11.70;99.90;;;;;;4161315;28;20056;-77
2022/01/01 03:33:36;;;;;;;14.35;5.78;;;11.80;99.90;;;;;;4163383;28;20133;-77
2022/01/01 03:35:38;;;;;;;16.67;6.20;;;11.70;99.90;;;;;;4160854;28;20050;-77
2022/01/01 03:37:40;;;;;;;13.25;6.43;;;11.70;99.90;;;;;;4162354;28;20485;-77
2022/01/01 03:39:42;;;;;;;13.88;6.00;;;11.70;99.90;;;;;;4163028;28;20084;-78
2022/01/01 03:41:44;;;;;;;18.88;6.43;;;11.70;99.90;;;;;;4163961;28;20050;-78
2022/01/01 03:43:46;;;;;;;14.30;5.80;;;11.70;99.90;;;;;;4160921;28;20769;-78
2022/01/01 03:45:48;;;;;;;14.13;5.80;;;11.70;99.90;;;;;;4149502;28;20085;-77
2022/01/01 03:47:51;;;;;;;13.25;6.18;;;11.60;99.90;;;;;;4149731;28;20077;-77
2022/01/01 03:49:53;;;;;;;19.95;5.40;;;11.60;99.90;;;;;;4163372;28;20080;-77
2022/01/01 03:51:58;;;;;;;18.15;6.50;;;11.60;99.90;;;;;;4163629;28;20046;-77
2022/01/01 03:54:00;;;;;;;14.52;5.97;;;11.70;99.90;;;;;;4170818;28;20048;-77
2022/01/01 03:56:02;;;;;;;11.85;5.13;;;11.60;99.90;;;;;;4163995;28;20081;-77
2022/01/01 03:58:04;;;;;;;11.15;5.80;;;11.70;99.90;;;;;;4165807;28;20136;-77
2022/01/01 04:00:11;;;;;;;12.82;5.57;;;11.60;99.90;;;;;;4154690;28;20087;-77
2022/01/01 04:02:14;;;;;;;16.27;5.40;;;11.60;99.90;;;;;;4165303;28;20049;-78
2022/01/01 04:04:16;;;;;;;15.50;5.22;;;11.60;99.90;;;;;;4162060;28;20048;-76
2022/01/01 04:06:18;;;;;;;10.55;4.78;;;11.70;99.90;;;;;;4164933;28;20085;-77
2022/01/01 04:08:20;;;;;;;12.43;5.00;;;11.80;99.90;;;;;;4165784;28;20049;-77
2022/01/01 04:10:22;;;;;;;10.05;4.72;;;11.70;99.90;;;;;;4163943;28;20421;-78
2022/01/01 04:12:25;;;;;;;10.73;4.50;;;11.70;99.90;;;;;;4161857;28;20181;-77
2022/01/01 04:14:26;;;;;;;17.30;5.45;;;11.70;99.90;;;;;;4163502;28;20120;-78
2022/01/01 04:16:29;;;;;;;13.10;5.18;;;11.70;99.90;;;;;;4150184;28;20041;-77
2022/01/01 04:18:40;;;;;;;14.15;5.05;;;11.70;99.90;;;;;;4165458;28;20094;-77
2022/01/01 04:20:44;;;;;;;12.63;4.55;;;11.70;99.90;;;;;;4165391;28;20052;-77
2022/01/01 04:22:46;;;;;;;14.52;5.53;;;11.70;99.90;;;;;;4163273;28;20091;-77
2022/01/01 04:24:48;;;;;;;14.60;5.22;;;11.70;99.90;;;;;;4163030;28;20060;-77
2022/01/01 04:26:50;;;;;;;11.88;4.82;;;11.80;99.90;;;;;;4161046;28;20129;-77
2022/01/01 04:28:52;;;;;;;8.85;4.07;;;11.80;99.90;;;;;;4164902;28;20041;-79
2022/01/01 04:30:54;;;;;;;12.48;4.68;;;11.80;99.90;;;;;;4173972;28;20053;-78
2022/01/01 04:32:57;;;;;;;12.48;4.10;;;11.80;99.90;;;;;;4164773;28;20114;-77
2022/01/01 04:34:59;;;;;;;19.00;4.75;;;11.70;99.90;;;;;;4164523;28;20084;-77
2022/01/01 04:37:04;;;;;;;13.45;4.72;;;11.80;99.90;;;;;;4163503;28;20077;-77
2022/01/01 04:39:06;;;;;;;11.02;4.10;;;11.80;99.90;;;;;;4149828;28;20137;-78
2022/01/01 04:41:11;;;;;;;17.08;4.25;;;11.80;99.90;;;;;;4149250;28;20252;-78
2022/01/01 04:43:19;;;;;;;7.80;3.95;;;11.80;99.90;;;;;;4164761;28;20041;-78
2022/01/01 04:45:20;;;;;;;12.07;4.13;;;11.90;99.90;;;;;;4165399;28;20080;-78
2022/01/01 04:47:22;;;;;;;8.10;3.80;;;11.80;99.90;;;;;;4148556;28;20052;-77
2022/01/01 04:49:24;;;;;;;9.15;4.10;;;11.80;99.90;;;;;;4155069;28;20522;-77
2022/01/01 04:51:26;;;;;;;14.15;4.20;;;11.80;99.90;;;;;;4164733;28;20429;-77
2022/01/01 04:53:28;;;;;;;8.60;3.90;;;11.80;99.90;;;;;;4167167;28;20076;-77
2022/01/01 04:55:30;;;;;;;10.70;3.55;;;11.80;99.90;;;;;;4160986;28;20041;-77
2022/01/01 04:57:32;;;;;;;9.27;4.00;;;11.80;99.90;;;;;;4165038;28;20084;-77
2022/01/01 04:59:35;;;;;;;6.40;3.72;;;11.80;99.90;;;;;;4163904;28;20054;-77
2022/01/01 05:01:37;;;;;;;9.48;4.07;;;11.70;99.90;;;;;;4165709;28;20084;-79
2022/01/01 05:03:39;;;;;;;8.95;3.85;;;11.70;99.90;;;;;;4157511;28;20099;-78
2022/01/01 05:05:41;;;;;;;11.23;4.38;;;11.80;99.90;;;;;;4157428;28;20081;-78
2022/01/01 05:07:43;;;;;;;10.13;4.00;;;11.80;99.90;;;;;;4148140;28;20077;-77
2022/01/01 05:09:45;;;;;;;11.50;3.78;;;11.80;99.90;;;;;;4148074;28;20066;-77
2022/01/01 05:11:47;;;;;;;6.82;3.92;;;11.80;99.90;;;;;;4148281;28;20046;-77
2022/01/01 05:13:49;;;;;;;11.77;4.07;;;11.80;99.90;;;;;;4170011;28;20543;-77
2022/01/01 05:15:52;;;;;;;13.07;4.05;;;11.80;99.90;;;;;;4164434;28;20077;-78
2022/01/01 05:17:53;;;;;;;8.90;3.67;;;11.80;99.90;;;;;;4164652;28;20049;-77
2022/01/01 05:19:55;;;;;;;10.32;3.58;;;11.80;99.90;;;;;;4162926;28;20072;-77
2022/01/01 05:21:57;;;;;;;8.88;4.07;;;11.80;99.90;;;;;;4147216;28;20085;-77
2022/01/01 05:23:59;;;;;;;10.32;3.63;;;11.90;99.90;;;;;;4164069;28;20139;-78
2022/01/01 05:26:03;;;;;;;11.32;3.53;;;11.90;99.90;;;;;;4164136;28;20493;-77
2022/01/01 05:28:04;;;;;;;7.90;3.60;;;11.90;99.90;;;;;;4164409;28;20049;-77
2022/01/01 05:30:07;;;;;;;10.30;3.97;;;11.80;99.90;;;;;;4162252;28;20042;-77
2022/01/01 05:32:09;;;;;;;6.20;3.25;;;11.90;99.90;;;;;;4147828;28;20049;-78
2022/01/01 05:34:11;;;;;;;8.20;3.60;;;12.00;99.90;;;;;;4147739;28;20046;-77
2022/01/01 05:36:14;;;;;;;17.02;4.22;;;12.00;99.90;;;;;;4147918;28;20058;-78
2022/01/01 05:38:17;;;;;;;8.13;3.50;;;12.00;99.90;;;;;;4147889;28;20089;-78
2022/01/01 05:40:27;;;;;;;10.23;3.90;;;11.90;99.90;;;;;;4160347;28;20052;-77
2022/01/01 05:42:29;;;;;;;7.05;3.75;;;12.00;99.90;;;;;;4163961;28;20072;-77
2022/01/01 05:44:30;;;;;;;10.30;3.40;;;12.00;99.90;;;;;;4162567;28;20535;-77
2022/01/01 05:46:32;;;;;;;6.15;3.00;;;12.00;99.90;;;;;;4147810;28;20521;-77
2022/01/01 05:48:34;;;;;;;7.32;3.30;;;12.00;99.90;;;;;;4147614;28;20054;-77
2022/01/01 05:50:36;;;;;;;10.65;3.55;;;12.00;99.90;;;;;;4147710;28;20572;-77
2022/01/01 05:52:39;;;;;;;5.63;3.30;;;12.10;99.90;;;;;;4150826;28;20160;-77
2022/01/01 05:54:40;;;;;;;5.18;3.15;;;12.00;99.90;;;;;;4155120;28;20520;-77
2022/01/01 05:56:42;;;;;;;8.25;3.90;;;12.10;99.90;;;;;;4168910;28;20472;-77
2022/01/01 05:58:44;;;;;;;7.15;3.22;;;12.20;99.90;;;;;;4147516;28;20046;-76
2022/01/01 06:00:46;;;;;;;7.80;3.47;;;12.20;99.90;;;;;;4147546;28;20046;-77
2022/01/01 06:02:48;;;;;;;6.78;3.22;;;12.20;99.90;;;;;;4155760;28;20084;-77
2022/01/01 06:04:50;;;;;;;6.97;3.28;;;12.20;99.90;;;;;;4162822;28;20111;-77
2022/01/01 06:06:52;;;;;;;6.65;3.10;;;12.20;99.90;;;;;;4164063;28;20139;-77
2022/01/01 06:08:54;;;;;;;9.13;2.95;;;12.30;99.90;;;;;;4164034;28;20125;-77
2022/01/01 06:10:56;;;;;;;6.20;3.15;;;12.30;99.90;;;;;;4161390;28;20081;-77
2022/01/01 06:12:58;;;;;;;5.10;3.00;;;12.30;99.90;;;;;;4157197;28;20493;-77
2022/01/01 06:15:00;;;;;;;6.47;2.72;;;12.30;99.90;;;;;;4147681;28;20093;-77
2022/01/01 06:17:02;;;;;;;6.82;2.75;;;12.30;99.90;;;;;;4148356;28;20049;-77
2022/01/01 06:19:04;;;;;;;12.20;3.72;;;12.30;99.90;;;;;;4148101;28;20169;-77
2022/01/01 06:21:06;;;;;;;5.63;2.67;;;12.30;99.90;;;;;;4148607;28;20081;-76
2022/01/01 06:23:08;;;;;;;7.40;3.08;;;12.20;99.90;;;;;;4159600;28;20053;-78
2022/01/01 06:25:10;;;;;;;7.53;3.80;;;12.20;99.90;;;;;;4148631;28;20053;-78
2022/01/01 06:27:13;;;;;;;6.07;3.40;;;12.20;99.90;;;;;;4163135;28;20080;-78
2022/01/01 06:29:15;;;;;;;7.85;3.38;;;12.10;99.90;;;;;;4161601;28;20065;-76
2022/01/01 06:31:17;;;;;;;6.07;3.00;;;12.20;99.90;;;;;;4157484;28;20095;-77
2022/01/01 06:33:20;;;;;;;6.80;3.20;;;12.10;99.90;;;;;;4163990;28;20049;-76
2022/01/01 06:35:22;;;;;;;7.13;3.40;;;12.00;99.90;;;;;;4161471;28;20715;-78
2022/01/01 06:37:24;;;;;;;5.00;2.90;;;12.10;99.90;;;;;;4162931;28;20144;-77
2022/01/01 06:39:26;;;;;;;5.90;3.80;;;12.10;99.90;;;;;;4147622;28;20049;-78
2022/01/01 06:41:28;;;;;;;11.00;3.40;;;12.00;99.90;;;;;;4163096;28;20091;-78
2022/01/01 06:43:30;;;;;;;8.45;3.20;;;12.00;99.90;;;;;;4161659;28;20081;-76
2022/01/01 06:45:32;;;;;;;6.25;2.80;;;12.00;99.90;;;;;;4163002;28;20041;-77
2022/01/01 06:47:34;;;;;;;5.68;3.10;;;12.00;99.90;;;;;;4147117;28;20041;-78
2022/01/01 06:49:36;;;;;;;5.25;3.08;;;12.00;99.90;;;;;;4146903;28;20526;-76
2022/01/01 06:51:38;;;;;;;7.78;3.53;;;11.90;99.90;;;;;;4150467;28;20089;-79
2022/01/01 06:53:40;;;;;;;8.52;3.50;;;11.90;99.90;;;;;;4154633;28;20077;-77
2022/01/01 06:55:42;;;;;;;11.20;3.67;;;11.90;99.90;;;;;;4160265;28;20041;-76
2022/01/01 06:57:44;;;;;;;6.78;2.70;;;11.90;99.90;;;;;;4165192;28;20057;-78
2022/01/01 06:59:46;;;;;;;5.18;3.15;;;11.90;99.90;;;;;;4162114;28;20062;-78
2022/01/01 07:01:48;;;;;;;6.28;3.58;;;11.90;99.90;;;;;;4148147;28;20081;-77
2022/01/01 07:03:50;;;;;;;7.22;3.45;;;11.90;99.90;;;;;;4147790;28;20108;-77
2022/01/01 07:05:53;;;;;;;5.90;3.50;;;11.90;99.90;;;;;;4157527;28;20065;-76
2022/01/01 07:07:55;;;;;;;10.00;3.67;;;12.00;99.90;;;;;;4162655;28;20458;-76
2022/01/01 07:09:57;;;;;;;5.97;3.17;;;12.00;99.90;;;;;;4154845;28;20084;-78
2022/01/01 07:11:59;;;;;;;5.93;4.03;;;12.00;99.90;;;;;;4162616;28;20077;-79
2022/01/01 07:14:01;;;;;;;6.32;3.47;;;12.00;99.90;;;;;;4161939;28;20140;-76
2022/01/01 07:16:04;;;;;;;7.97;3.47;;;11.90;99.90;;;;;;4163351;28;20052;-76
2022/01/01 07:18:06;;;;;;;8.18;3.55;;;11.90;99.90;;;;;;4148421;28;20575;-76
2022/01/01 07:20:09;;;;;;;8.63;3.45;;;11.80;99.90;;;;;;4147807;28;20125;-76
2022/01/01 07:22:11;;;;;;;7.22;3.22;;;11.80;99.90;;;;;;4162883;28;20136;-78
2022/01/01 07:24:13;;;;;;;10.50;3.35;;;11.80;99.90;;;;;;4146673;28;20073;-78
2022/01/01 07:26:14;;;;;;;8.23;3.60;;;11.80;99.90;;;;;;4147165;28;20084;-78
2022/01/01 07:28:16;;;;;;;5.72;3.28;;;11.80;99.90;;;;;;4149025;28;20085;-80
2022/01/01 07:30:18;;;;;;;6.30;3.97;;;11.70;99.90;;;;;;4152683;28;20057;-77
2022/01/01 07:32:24;;;;;;;5.60;3.85;;;11.80;99.90;;;;;;4166335;28;20077;-76
2022/01/01 07:34:26;;;;;;;6.75;3.88;;;11.70;99.90;;;;;;4149979;28;20065;-76
2022/01/01 07:36:28;;;;;;;7.72;3.78;;;11.70;99.90;;;;;;4149906;28;20054;-77
2022/01/01 07:38:33;;;;;;;10.27;4.45;;;11.70;99.90;;;;;;4152459;28;20111;-76
2022/01/01 07:40:35;;;;;;;6.90;3.80;;;11.70;99.90;;;;;;4153895;28;20076;-78
2022/01/01 07:42:38;;;;;;;7.72;3.85;;;11.80;99.90;;;;;;4165916;28;20050;-78
2022/01/01 07:44:41;;;;;;;4.90;3.50;;;11.80;99.90;;;;;;4166353;28;20073;-76
2022/01/01 07:46:43;;;;;;;10.65;3.83;;;11.80;99.90;;;;;;4161625;28;20528;-77
2022/01/01 07:48:45;;;;;;;6.32;3.90;;;11.80;99.90;;;;;;4166675;28;20053;-77
2022/01/01 07:50:47;;;;;;;5.30;3.63;;;11.80;99.90;;;;;;4151863;28;20052;-77
2022/01/01 07:52:49;;;;;;;6.32;3.72;;;11.80;99.90;;;;;;4150464;28;20053;-77
2022/01/01 07:54:51;;;;;;;6.20;4.15;;;11.90;99.90;;;;;;4158702;28;20045;-77
2022/01/01 07:56:53;;;;;;;7.75;4.18;;;11.90;99.90;;;;;;4166841;28;20048;-77
2022/01/01 07:58:54;;;;;;;7.70;4.10;;;11.90;99.90;;;;;;4168800;28;20594;-76
2022/01/01 08:00:57;;;;;;;5.28;3.50;;;12.00;99.90;;;;;;4165445;28;20045;-77
2022/01/01 08:02:59;;;;;;;7.13;4.38;;;12.00;99.90;;;;;;4150022;28;20046;-76
2022/01/01 08:05:01;;;;;;;9.18;3.95;;;12.00;99.90;;;;;;4152702;28;20049;-77
2022/01/01 08:07:03;;;;;;;7.57;3.88;;;11.90;99.90;;;;;;4165279;28;20137;-76
2022/01/01 08:09:25;;;;;;;6.28;3.75;;;11.90;99.90;;;;;;4165070;28;20049;-77
2022/01/01 08:11:27;;;;;;;11.13;4.00;;;11.90;99.90;;;;;;4166666;28;20521;-78
2022/01/01 08:13:29;;;;;;;5.65;3.85;;;11.90;99.90;;;;;;4170986;28;20049;-78
2022/01/01 08:15:31;;;;;;;7.97;4.15;;;11.90;99.90;;;;;;4166287;28;20045;-78
2022/01/01 08:17:33;;;;;;;8.50;4.18;;;11.90;99.90;;;;;;4165725;28;20053;-78
2022/01/01 08:19:35;;;;;;;7.68;4.03;;;11.90;99.90;;;;;;4149897;28;20081;-78
2022/01/01 08:21:37;;;;;;;7.38;4.00;;;11.90;99.90;;;;;;4150215;28;20052;-78
2022/01/01 08:23:39;;;;;;;6.95;4.07;;;11.90;99.90;;;;;;4160799;28;20083;-78
2022/01/01 08:25:45;;;;;;;7.10;4.07;;;11.90;99.90;;;;;;4166203;28;20052;-78
2022/01/01 08:27:47;;;;;;;7.63;3.95;;;11.90;99.90;;;;;;4165452;28;20053;-77
2022/01/01 08:29:49;;;;;;;5.30;3.80;;;11.90;99.90;;;;;;4164240;28;20053;-78
2022/01/01 08:31:51;;;;;;;6.25;4.10;;;11.90;99.90;;;;;;4163882;28;20422;-78
2022/01/01 08:33:53;;;;;;;7.90;4.00;;;11.90;99.90;;;;;;4167896;28;20054;-78
2022/01/01 08:35:55;;;;;;;6.80;4.15;;;11.90;99.90;;;;;;4165545;28;20076;-76
2022/01/01 08:37:58;;;;;;;6.45;4.10;;;11.80;99.90;;;;;;4167117;28;20057;-75
2022/01/01 08:40:00;;;;;;;7.78;4.13;;;11.80;99.90;;;;;;4151287;28;20157;-78
2022/01/01 08:42:02;;;;;;;7.80;4.20;;;11.70;99.90;;;;;;4162842;28;20185;-76
2022/01/01 08:44:05;;;;;;;10.10;4.15;;;11.70;99.90;;;;;;4165090;28;20476;-79
2022/01/01 08:46:07;;;;;;;9.57;4.05;;;11.70;99.90;;;;;;4150863;28;20050;-76
2022/01/01 08:48:09;;;;;;;7.93;3.97;;;11.70;99.90;;;;;;4150102;28;20722;-76
2022/01/01 08:50:11;;;;;;;10.75;4.15;;;11.70;99.90;;;;;;4166119;28;20085;-78
2022/01/01 08:52:13;;;;;;;9.23;4.40;;;11.60;99.90;;;;;;4149420;28;20056;-78
2022/01/01 08:54:15;;;;;;;7.72;4.35;;;11.60;99.90;;;;;;4165587;28;20042;-78
2022/01/01 08:56:17;;;;;;;9.45;4.45;;;11.50;99.90;;;;;;4151908;28;20369;-76
2022/01/01 08:58:19;;;;;;;8.75;4.47;;;11.50;99.90;;;;;;4165819;28;20136;-76
2022/01/01 09:00:28;;;;;;;8.07;4.13;;;11.40;99.90;;;;;;4151885;28;20054;-79
2022/01/01 09:02:30;;;;;;;6.13;4.32;;;11.40;99.90;;;;;;4151535;28;20053;-76
2022/01/01 09:04:32;;;;;;;12.75;4.55;;;11.40;99.90;;;;;;4155436;28;20069;-77
2022/01/01 09:06:34;;;;;;;12.55;5.05;;;11.30;99.90;;;;;;4152727;28;20469;-77
2022/01/01 09:08:40;;;;;;;7.50;4.13;;;11.30;99.90;;;;;;4152397;28;20046;-78
2022/01/01 09:10:41;;;;;;;7.13;4.05;;;11.30;99.90;;;;;;4153901;28;20061;-77
2022/01/01 09:12:43;;;;;;;6.50;4.10;;;11.30;99.90;;;;;;4150229;28;20046;-77
2022/01/01 09:14:45;;;;;;;12.25;6.03;;;11.30;99.90;;;;;;4149641;28;20041;-77
2022/01/01 09:16:50;;;;;;;9.50;4.85;;;11.40;99.90;;;;;;4152909;28;20041;-77
2022/01/01 09:18:52;;;;;;;9.43;4.70;;;11.40;99.90;;;;;;4159333;28;20465;-77
2022/01/01 09:20:54;;;;;;;6.93;4.55;;;11.40;99.90;;;;;;4152694;28;20494;-77
2022/01/01 09:23:00;;;;;;;8.52;4.65;;;11.40;99.90;;;;;;4151091;28;20048;-77
2022/01/01 09:25:03;;;;;;;10.35;4.20;;;11.50;99.90;;;;;;4153621;28;20055;-77
2022/01/01 09:27:05;;;;;;;10.80;4.20;;;11.50;99.90;;;;;;4150143;28;20053;-76
2022/01/01 09:29:10;;;;;;;10.02;4.43;;;11.60;99.90;;;;;;4150093;28;20050;-77
2022/01/01 09:31:11;;;;;;;11.55;5.65;;;11.60;99.90;;;;;;4149597;28;20046;-76
2022/01/01 09:33:14;;;;;;;8.95;4.50;;;11.60;99.90;;;;;;4162829;28;20123;-77
2022/01/01 09:35:17;;;;;;;8.68;4.65;;;11.60;99.90;;;;;;4166786;28;20065;-78
2022/01/01 09:37:19;;;;;;;9.88;4.70;;;11.60;99.90;;;;;;4159370;28;20513;-77
2022/01/01 09:39:21;;;;;;;10.02;4.38;;;11.60;99.90;;;;;;4166565;28;20049;-77
2022/01/01 09:41:23;;;;;;;10.57;5.18;;;11.60;99.90;;;;;;4149524;28;20100;-77
2022/01/01 09:43:27;;;;;;;7.18;4.25;;;11.50;99.90;;;;;;4165049;28;20073;-77
2022/01/01 09:45:30;;;;;;;8.02;4.15;;;11.50;99.90;;;;;;4164821;28;20141;-77
2022/01/01 09:47:32;;;;;;;11.20;4.22;;;11.50;99.90;;;;;;4165360;28;20467;-77
2022/01/01 09:49:35;;;;;;;8.98;4.63;;;11.50;99.90;;;;;;4162913;28;20084;-77
2022/01/01 09:51:37;;;;;;;7.05;4.53;;;11.50;99.90;;;;;;4165761;28;20076;-77
2022/01/01 09:53:39;;;;;;;8.43;3.95;;;11.50;99.90;;;;;;4149423;28;20177;-76
2022/01/01 09:55:42;;;;;;;11.00;4.20;;;11.50;99.90;;;;;;4148537;28;20133;-78
2022/01/01 09:57:43;;;;;;;14.27;4.70;;;11.50;99.90;;;;;;4148420;28;20117;-78
2022/01/01 09:59:46;;;;;;;11.43;4.80;;;11.50;99.90;;;;;;4164135;28;20045;-79
2022/01/01 10:01:48;;;;;;;6.68;3.83;;;11.40;99.90;;;;;;4164846;28;20081;-78
2022/01/01 10:03:52;;;;;;;7.78;4.72;;;11.40;99.90;;;;;;4161806;28;20060;-77
2022/01/01 10:06:05;;;;;;;11.48;4.85;;;11.50;99.90;;;;;;4148594;28;20518;-79
2022/01/01 10:08:10;;;;;;;7.53;4.32;;;11.50;99.90;;;;;;4162177;28;20049;-77
2022/01/01 10:10:16;;;;;;;;;;;11.50;99.90;;;;;;4163993;28;20046;-77
2022/01/01 10:12:19;;;;;;;7.90;4.75;;;11.50;99.90;;;;;;4163607;28;19971;-76
2022/01/01 10:14:42;;;;;;;9.30;4.60;;;11.50;99.90;;;;;;4163530;28;20077;-77
2022/01/01 10:16:44;;;;;;;7.63;4.13;;;11.60;99.90;;;;;;4162027;28;20068;-76
2022/01/01 10:18:53;;;;;;;10.50;4.80;;;11.70;99.90;;;;;;4165116;28;20572;-76
2022/01/01 10:20:59;;;;;;;9.20;4.40;;;11.80;99.90;;;;;;4163732;28;20488;-77
2022/01/01 10:23:13;;;;;;;10.52;5.05;;;11.90;99.90;;;;;;4162575;28;20512;-77
2022/01/01 10:27:48;;;;;;;14.50;5.07;;;12.10;99.90;;;;;;4164395;28;20099;-78
2022/01/01 10:29:50;;;;;;;7.60;4.30;;;12.20;99.90;;;;;;4163652;28;20134;-78
2022/01/01 10:32:01;;;;;;;7.10;4.25;;;12.20;99.90;;;;;;4163153;28;20052;-78
2022/01/01 10:34:14;;;;;;;7.30;4.10;;;12.20;99.90;;;;;;4162270;28;20085;-77
2022/01/01 10:36:20;;;;;;;6.10;4.15;;;12.20;99.90;;;;;;4162925;28;20084;-78
2022/01/01 10:38:28;;;;;;;5.75;3.58;;;12.20;99.90;;;;;;4163447;28;20104;-78
2022/01/01 10:40:30;;;;;;;9.27;4.35;;;12.20;99.90;;;;;;4162779;28;20054;-78